Time;durP1;ratioP1;P1;durP2;ratioP2;P2;SDS_P1;SDS_P2;PMS_P1;PMS_P2;Temp;Humidity;BMP_temperature;BMP_pressure;BME280_temperature;BME280_humidity;BME280_pressure;Samples;Min_cycle;Max_cycle;Signal;HPM_P1;HPM_P2
2022/05/16 00:00:55;;;;;;;10.43;9.38;;;;;22.70;100378.00;;;;2078617;28;20309;-51
2022/05/16 00:01:56;;;;;;;11.83;9.20;;;;;22.70;100374.00;;;;2078980;28;20217;-51
2022/05/16 00:02:59;;;;;;;10.90;9.13;;;;;22.70;100376.00;;;;2078755;28;20217;-51
2022/05/16 00:04:00;;;;;;;10.05;8.98;;;;;22.70;100380.00;;;;2077675;28;20727;-51
2022/05/16 00:05:00;;;;;;;11.23;9.37;;;;;22.70;100378.00;;;;2078078;28;20217;-52
2022/05/16 00:06:00;;;;;;;9.63;8.63;;;;;22.70;100379.00;;;;2078050;28;20225;-51
2022/05/16 00:07:01;;;;;;;9.87;8.77;;;;;22.70;100382.00;;;;2078127;28;20649;-51
2022/05/16 00:08:01;;;;;;;10.70;8.80;;;;;22.70;100379.00;;;;2078235;28;20841;-51
2022/05/16 00:09:02;;;;;;;8.80;7.90;;;;;22.70;100378.00;;;;2079010;28;20234;-50
2022/05/16 00:10:03;;;;;;;9.52;8.63;;;;;22.70;100378.00;;;;2078969;28;20292;-51
2022/05/16 00:11:04;;;;;;;9.63;8.73;;;;;22.70;100369.00;;;;2078784;28;20882;-51
2022/05/16 00:12:05;;;;;;;8.70;7.80;;;;;22.70;100369.00;;;;2078630;28;20217;-51
2022/05/16 00:13:05;;;;;;;9.30;8.33;;;;;22.70;100377.00;;;;2071003;28;20686;-51
2022/05/16 00:14:05;;;;;;;9.37;8.47;;;;;22.70;100381.00;;;;2070769;28;20969;-50
2022/05/16 00:15:07;;;;;;;9.43;8.00;;;;;22.60;100367.00;;;;2070181;28;20214;-51
2022/05/16 00:16:07;;;;;;;10.00;8.23;;;;;22.60;100378.00;;;;2069260;28;20642;-51
2022/05/16 00:17:07;;;;;;;8.10;7.17;;;;;22.60;100379.00;;;;2069899;28;20222;-50
2022/05/16 00:18:08;;;;;;;9.50;7.90;;;;;22.60;100380.00;;;;2071757;28;20221;-51
2022/05/16 00:19:08;;;;;;;9.70;7.80;;;;;22.60;100367.00;;;;2078782;28;20299;-50
2022/05/16 00:20:09;;;;;;;11.43;8.00;;;;;22.70;100344.00;;;;2078908;28;20221;-51
2022/05/16 00:21:09;;;;;;;9.33;8.37;;;;;22.70;100364.00;;;;2078475;28;20221;-51
2022/05/16 00:22:10;;;;;;;8.87;7.47;;;;;22.70;100362.00;;;;2077964;28;20867;-51
2022/05/16 00:23:10;;;;;;;9.20;7.40;;;;;22.70;100367.00;;;;2070489;28;20210;-51
2022/05/16 00:24:10;;;;;;;7.90;7.10;;;;;22.60;100363.00;;;;2070501;28;20312;-51
2022/05/16 00:25:12;;;;;;;8.87;7.83;;;;;22.70;100368.00;;;;2070622;28;20226;-51
2022/05/16 00:26:13;;;;;;;10.30;7.70;;;;;22.70;100365.00;;;;2069814;28;20308;-51
2022/05/16 00:27:13;;;;;;;8.80;7.67;;;;;22.70;100368.00;;;;2070456;28;20210;-51
2022/05/16 00:28:13;;;;;;;8.87;7.63;;;;;22.70;100363.00;;;;2066074;28;20331;-51
2022/05/16 00:29:14;;;;;;;8.40;7.50;;;;;22.60;100369.00;;;;2070353;28;20245;-51
2022/05/16 00:30:15;;;;;;;8.33;6.57;;;;;22.60;100359.00;;;;2070551;28;20214;-52
2022/05/16 00:31:16;;;;;;;8.38;7.20;;;;;22.60;100363.00;;;;2070717;28;20980;-51
2022/05/16 00:32:17;;;;;;;8.90;7.67;;;;;22.60;100362.00;;;;2073282;28;20222;-53
2022/05/16 00:33:17;;;;;;;7.70;6.82;;;;;22.60;100360.00;;;;2078555;28;20643;-51
2022/05/16 00:34:17;;;;;;;7.77;7.00;;;;;22.60;100360.00;;;;2069702;28;20226;-51
2022/05/16 00:35:19;;;;;;;8.30;6.40;;;;;22.60;100363.00;;;;2074309;28;20228;-51
2022/05/16 00:36:20;;;;;;;9.63;7.43;;;;;22.60;100365.00;;;;2077940;28;20236;-51
2022/05/16 00:37:20;;;;;;;8.70;7.17;;;;;22.60;100359.00;;;;2078130;28;20220;-50
2022/05/16 00:38:20;;;;;;;9.27;6.73;;;;;22.60;100365.00;;;;2077697;28;20225;-51
2022/05/16 00:39:21;;;;;;;7.07;6.37;;;;;22.60;100357.00;;;;2077915;28;20227;-50
2022/05/16 00:40:21;;;;;;;7.37;6.40;;;;;22.70;100359.00;;;;2077943;28;20221;-51
2022/05/16 00:41:22;;;;;;;7.23;6.50;;;;;22.70;100364.00;;;;2078058;28;20232;-51
2022/05/16 00:42:22;;;;;;;9.40;6.33;;;;;22.60;100355.00;;;;2076271;28;20218;-51
2022/05/16 00:43:40;;;;;;;7.43;6.63;;;;;22.60;100359.00;;;;2078123;28;20213;-50
2022/05/16 00:44:40;;;;;;;6.80;6.10;;;;;22.70;100354.00;;;;2077243;28;20637;-52
2022/05/16 00:45:41;;;;;;;7.37;6.00;;;;;22.70;100352.00;;;;2076306;28;20220;-50
2022/05/16 00:46:41;;;;;;;7.33;6.63;;;;;22.70;100358.00;;;;2069054;28;21049;-57
2022/05/16 00:47:42;;;;;;;6.77;6.07;;;;;22.70;100355.00;;;;2068518;28;20238;-51
2022/05/16 00:48:42;;;;;;;7.13;6.27;;;;;22.60;100343.00;;;;2077147;28;20271;-50
2022/05/16 00:49:45;;;;;;;6.27;5.67;;;;;22.60;100351.00;;;;2069647;28;20292;-51
2022/05/16 00:50:46;;;;;;;6.35;5.75;;;;;22.60;100352.00;;;;2069541;28;20264;-51
2022/05/16 00:51:48;;;;;;;6.90;6.20;;;;;22.60;100347.00;;;;2069914;28;20214;-51
2022/05/16 00:52:49;;;;;;;8.00;6.22;;;;;22.60;100347.00;;;;2070020;28;20692;-51
2022/05/16 00:53:55;;;;;;;6.70;6.00;;;;;22.60;100351.00;;;;2061314;28;20214;-50
2022/05/16 00:54:55;;;;;;;6.80;6.10;;;;;22.60;100348.00;;;;2062216;28;20806;-51
2022/05/16 00:55:55;;;;;;;6.40;5.80;;;;;22.60;100352.00;;;;2076080;28;20221;-51
2022/05/16 00:57:06;;;;;;;6.10;5.53;;;;;22.60;100346.00;;;;2069665;28;20650;-51
2022/05/16 00:58:08;;;;;;;6.40;5.80;;;;;22.60;100350.00;;;;2069329;28;20218;-51
2022/05/16 00:59:09;;;;;;;6.50;5.90;;;;;22.60;100344.00;;;;2069266;28;20301;-51
2022/05/16 01:00:21;;;;;;;6.40;5.80;;;;;22.60;100350.00;;;;2069073;28;20217;-51
2022/05/16 01:05:28;;;;;;;6.40;5.75;;;;;22.60;100343.00;;;;2066395;28;20222;-51
2022/05/16 01:06:28;;;;;;;6.10;5.53;;;;;22.60;100341.00;;;;2069590;28;20809;-51
2022/05/16 01:07:30;;;;;;;6.80;5.30;;;;;22.60;100346.00;;;;2069698;28;20710;-51
2022/05/16 01:08:32;;;;;;;8.32;5.65;;;;;22.60;100339.00;;;;2070538;28;20222;-50
2022/05/16 01:09:32;;;;;;;6.60;5.82;;;;;22.60;100343.00;;;;2070909;28;20301;-51
2022/05/16 01:10:33;;;;;;;5.60;5.10;;;;;22.60;100340.00;;;;2070437;28;20714;-51
2022/05/16 01:11:33;;;;;;;6.20;5.47;;;;;22.60;100337.00;;;;2070680;28;20876;-51
2022/05/16 01:12:36;;;;;;;8.60;5.70;;;;;22.60;100337.00;;;;2071159;28;20218;-51
2022/05/16 01:13:36;;;;;;;7.00;5.75;;;;;22.60;100334.00;;;;2079519;28;20247;-50
2022/05/16 01:14:52;;;;;;;6.60;5.53;;;;;22.60;100333.00;;;;2079611;28;20260;-54
2022/05/16 01:15:52;;;;;;;5.53;4.93;;;;;22.50;100333.00;;;;2070262;28;20213;-51
2022/05/16 01:16:52;;;;;;;5.57;5.07;;;;;22.50;100340.00;;;;2063611;28;20210;-51
2022/05/16 01:17:53;;;;;;;5.20;4.80;;;;;22.50;100326.00;;;;2079198;28;20347;-52
2022/05/16 01:18:53;;;;;;;8.50;5.60;;;;;22.60;100334.00;;;;2080121;28;20582;-50
2022/05/16 01:19:53;;;;;;;5.73;5.23;;;;;22.60;100325.00;;;;2078631;28;20264;-51
2022/05/16 01:21:22;;;;;;;5.60;5.10;;;;;22.60;100324.00;;;;2072030;28;20236;-51
2022/05/16 01:22:30;;;;;;;5.90;4.97;;;;;22.60;100322.00;;;;2071972;28;20301;-51
2022/05/16 01:24:17;;;;;;;5.70;5.07;;;;;22.50;100323.00;;;;2071177;28;20256;-51
2022/05/16 01:25:27;;;;;;;5.13;4.63;;;;;22.50;100318.00;;;;2061251;28;20312;-51
2022/05/16 01:26:29;;;;;;;5.30;4.90;;;;;22.50;100323.00;;;;2072133;28;20210;-51
2022/05/16 01:27:45;;;;;;;5.40;4.82;;;;;22.50;100322.00;;;;2071754;28;20218;-51
2022/05/16 01:28:45;;;;;;;7.03;5.25;;;;;22.50;100330.00;;;;2071576;28;20240;-51
2022/05/16 01:29:46;;;;;;;7.07;5.10;;;;;22.50;100320.00;;;;2072035;28;20202;-51
2022/05/16 01:30:47;;;;;;;4.57;4.13;;;;;22.50;100325.00;;;;2071898;28;20763;-51
2022/05/16 01:31:47;;;;;;;5.70;5.10;;;;;22.50;100316.00;;;;2071878;28;20925;-51
2022/05/16 01:32:48;;;;;;;5.70;4.97;;;;;22.50;100313.00;;;;2071835;28;20210;-51
2022/05/16 01:33:48;;;;;;;5.43;4.93;;;;;22.50;100316.00;;;;2071156;28;20940;-51
2022/05/16 01:34:49;;;;;;;5.43;4.80;;;;;22.50;100310.00;;;;2071326;28;20218;-51
2022/05/16 01:35:49;;;;;;;4.80;4.40;;;;;22.50;100313.00;;;;2070959;28;20352;-51
2022/05/16 01:36:50;;;;;;;6.07;4.77;;;;;22.60;100320.00;;;;2071747;28;20645;-51
2022/05/16 01:39:09;;;;;;;6.57;4.97;;;;;22.50;100317.00;;;;2071894;28;20218;-51
2022/05/16 01:40:10;;;;;;;5.93;5.33;;;;;22.50;100310.00;;;;2071883;28;20218;-51
2022/05/16 01:41:13;;;;;;;5.43;4.93;;;;;22.50;100311.00;;;;2071365;28;20920;-56
2022/05/16 01:42:13;;;;;;;5.15;4.60;;;;;22.50;100310.00;;;;2071877;28;20213;-52
2022/05/16 01:43:14;;;;;;;4.57;4.13;;;;;22.60;100311.00;;;;2076617;28;20214;-51
2022/05/16 01:44:14;;;;;;;5.10;4.40;;;;;22.60;100307.00;;;;2079813;28;20613;-51
2022/05/16 01:45:15;;;;;;;5.40;4.90;;;;;22.60;100309.00;;;;2079108;28;20994;-51
2022/05/16 01:46:17;;;;;;;5.00;4.50;;;;;22.50;100311.00;;;;2078726;28;20748;-51
2022/05/16 01:47:17;;;;;;;5.63;4.90;;;;;22.50;100308.00;;;;2078914;28;20264;-51
2022/05/16 01:48:18;;;;;;;5.10;4.60;;;;;22.50;100311.00;;;;2079189;28;20351;-52
2022/05/16 01:49:18;;;;;;;5.50;5.00;;;;;22.60;100312.00;;;;2079281;28;20220;-51
2022/05/16 01:50:19;;;;;;;4.70;4.30;;;;;22.60;100306.00;;;;2079146;28;20221;-51
2022/05/16 01:51:19;;;;;;;4.77;4.23;;;;;22.60;100309.00;;;;2079700;28;20248;-51
2022/05/16 01:52:19;;;;;;;5.40;4.13;;;;;22.50;100306.00;;;;2079941;28;20222;-51
2022/05/16 01:53:20;;;;;;;5.40;4.40;;;;;22.50;100302.00;;;;2079683;28;20267;-51
2022/05/16 01:54:20;;;;;;;5.20;4.70;;;;;22.50;100308.00;;;;2079773;28;20209;-51
2022/05/16 01:55:21;;;;;;;6.10;4.60;;;;;22.60;100314.00;;;;2079231;28;20244;-51
2022/05/16 01:56:22;;;;;;;4.80;4.40;;;;;22.50;100305.00;;;;2079539;28;20214;-51
2022/05/16 01:57:22;;;;;;;5.35;4.82;;;;;22.50;100309.00;;;;2073573;28;21131;-51
2022/05/16 01:58:22;;;;;;;6.03;4.60;;;;;22.50;100301.00;;;;2071501;28;20217;-51
2022/05/16 01:59:23;;;;;;;5.40;4.60;;;;;22.50;100303.00;;;;2071617;28;20321;-51
2022/05/16 02:00:23;;;;;;;5.03;4.57;;;;;22.50;100305.00;;;;2071745;28;20207;-51
2022/05/16 02:01:23;;;;;;;5.30;4.77;;;;;22.60;100302.00;;;;2071655;28;20221;-51
2022/05/16 02:02:24;;;;;;;6.80;4.93;;;;;22.50;100297.00;;;;2070722;28;20237;-51
2022/05/16 02:03:24;;;;;;;4.90;4.47;;;;;22.50;100296.00;;;;2070936;28;20215;-51
2022/05/16 02:04:24;;;;;;;6.50;4.70;;;;;22.50;100297.00;;;;2071815;28;20206;-51
2022/05/16 02:05:25;;;;;;;5.70;4.77;;;;;22.50;100298.00;;;;2071115;28;20203;-51
2022/05/16 02:06:25;;;;;;;4.37;3.97;;;;;22.50;100299.00;;;;2074662;28;20216;-51
2022/05/16 02:07:27;;;;;;;5.30;4.70;;;;;22.50;100309.00;;;;2079436;28;20237;-51
2022/05/16 02:08:27;;;;;;;6.10;4.75;;;;;22.50;100311.00;;;;2079717;28;20202;-52
2022/05/16 02:09:28;;;;;;;4.27;3.90;;;;;22.50;100293.00;;;;2079805;28;20233;-51
2022/05/16 02:10:28;;;;;;;4.83;4.40;;;;;22.50;100295.00;;;;2079972;28;20753;-51
2022/05/16 02:11:28;;;;;;;5.20;4.70;;;;;22.50;100300.00;;;;2071665;28;20792;-51
2022/05/16 02:12:29;;;;;;;7.13;4.40;;;;;22.50;100307.00;;;;2079353;28;20221;-51
2022/05/16 02:13:29;;;;;;;5.97;4.50;;;;;22.50;100303.00;;;;2079565;28;20217;-51
2022/05/16 02:14:30;;;;;;;4.53;4.13;;;;;22.50;100300.00;;;;2079802;28;20224;-51
2022/05/16 02:15:31;;;;;;;4.70;4.13;;;;;22.40;100296.00;;;;2079043;28;20205;-51
2022/05/16 02:16:31;;;;;;;5.00;4.47;;;;;22.50;100291.00;;;;2079803;28;20206;-51
2022/05/16 02:17:32;;;;;;;4.30;3.90;;;;;22.50;100289.00;;;;2079719;28;20267;-51
2022/05/16 02:18:32;;;;;;;4.80;4.03;;;;;22.50;100285.00;;;;2078669;28;20201;-51
2022/05/16 02:19:32;;;;;;;4.23;3.83;;;;;22.50;100292.00;;;;2078150;28;20210;-51
2022/05/16 02:20:33;;;;;;;6.77;4.30;;;;;22.50;100286.00;;;;2079754;28;20301;-50
2022/05/16 02:25:36;;;;;;;5.20;4.22;;;;;22.50;100281.00;;;;2078415;28;20300;-51
2022/05/16 02:26:36;;;;;;;4.97;4.55;;;;;22.50;100281.00;;;;2073655;28;20574;-51
2022/05/16 02:27:37;;;;;;;4.13;3.73;;;;;22.50;100275.00;;;;2071482;28;20218;-51
2022/05/16 02:28:38;;;;;;;4.33;3.93;;;;;22.50;100272.00;;;;2079438;28;20265;-51
2022/05/16 02:29:38;;;;;;;5.13;4.63;;;;;22.50;100272.00;;;;2078895;28;20456;-51
2022/05/16 02:30:39;;;;;;;5.00;3.70;;;;;22.50;100276.00;;;;2069803;28;20217;-52
2022/05/16 02:31:39;;;;;;;5.20;4.70;;;;;22.50;100271.00;;;;2078451;28;20653;-52
2022/05/16 02:32:39;;;;;;;5.00;4.13;;;;;22.50;100272.00;;;;2077465;28;20275;-51
2022/05/16 02:33:40;;;;;;;4.90;4.20;;;;;22.50;100275.00;;;;2078430;28;20210;-51
2022/05/16 02:34:41;;;;;;;3.83;3.50;;;;;22.40;100270.00;;;;2078093;28;20325;-52
2022/05/16 02:35:41;;;;;;;5.13;4.20;;;;;22.40;100269.00;;;;2078832;28;20288;-52
2022/05/16 02:36:42;;;;;;;4.60;4.13;;;;;22.50;100265.00;;;;2079663;28;20260;-52
2022/05/16 02:37:43;;;;;;;4.40;4.00;;;;;22.50;100263.00;;;;2079400;28;20221;-52
2022/05/16 02:38:43;;;;;;;4.10;3.70;;;;;22.50;100268.00;;;;2078694;28;20327;-52
2022/05/16 02:39:45;;;;;;;5.37;4.27;;;;;22.50;100256.00;;;;2078740;28;20264;-52
2022/05/16 02:40:45;;;;;;;4.47;3.95;;;;;22.40;100256.00;;;;2077981;28;20459;-51
2022/05/16 02:41:45;;;;;;;5.10;4.00;;;;;22.40;100258.00;;;;2079088;28;20217;-51
2022/05/16 02:42:46;;;;;;;5.00;4.50;;;;;22.40;100257.00;;;;2078293;28;20689;-52
2022/05/16 02:43:46;;;;;;;4.60;4.03;;;;;22.40;100259.00;;;;2075292;28;20221;-52
2022/05/16 02:44:46;;;;;;;4.47;4.07;;;;;22.40;100256.00;;;;2070280;28;20225;-51
2022/05/16 02:45:47;;;;;;;4.20;3.73;;;;;22.40;100247.00;;;;2070097;28;20696;-50
2022/05/16 02:46:47;;;;;;;4.97;4.50;;;;;22.40;100252.00;;;;2071467;28;20653;-52
2022/05/16 02:47:47;;;;;;;4.70;4.30;;;;;22.40;100256.00;;;;2071248;28;20723;-52
2022/05/16 02:48:48;;;;;;;4.43;3.50;;;;;22.50;100249.00;;;;2071482;28;20218;-51
2022/05/16 02:49:48;;;;;;;4.40;3.93;;;;;22.50;100252.00;;;;2071102;28;20214;-52
2022/05/16 02:50:49;;;;;;;5.10;4.30;;;;;22.40;100251.00;;;;2071150;28;20249;-51
2022/05/16 02:51:49;;;;;;;4.90;4.40;;;;;22.40;100249.00;;;;2071267;28;20224;-51
2022/05/16 02:52:50;;;;;;;4.50;4.10;;;;;22.40;100243.00;;;;2071219;28;20210;-53
2022/05/16 02:53:50;;;;;;;5.03;4.53;;;;;22.40;100246.00;;;;2071257;28;20213;-52
2022/05/16 02:54:51;;;;;;;5.40;4.00;;;;;22.40;100248.00;;;;2071348;28;20293;-51
2022/05/16 02:55:52;;;;;;;4.43;4.03;;;;;22.50;100245.00;;;;2070833;28;20293;-52
2022/05/16 02:56:52;;;;;;;5.03;4.07;;;;;22.50;100241.00;;;;2070559;28;20460;-55
2022/05/16 02:57:52;;;;;;;4.23;3.33;;;;;22.40;100239.00;;;;2071078;28;20784;-54
2022/05/16 02:58:53;;;;;;;5.23;3.83;;;;;22.40;100235.00;;;;2071450;28;20667;-55
2022/05/16 02:59:54;;;;;;;4.27;3.87;;;;;22.40;100237.00;;;;2071344;28;20301;-52
2022/05/16 03:00:54;;;;;;;8.03;4.27;;;;;22.40;100239.00;;;;2071436;28;20720;-52
2022/05/16 03:01:55;;;;;;;4.40;3.90;;;;;22.40;100235.00;;;;2071112;28;20464;-52
2022/05/16 03:02:55;;;;;;;4.70;4.10;;;;;22.40;100239.00;;;;2071251;28;20223;-52
2022/05/16 03:03:56;;;;;;;4.53;4.13;;;;;22.40;100239.00;;;;2073017;28;20218;-51
2022/05/16 03:04:56;;;;;;;4.97;4.57;;;;;22.40;100243.00;;;;2079393;28;20221;-52
2022/05/16 03:05:56;;;;;;;4.97;4.37;;;;;22.40;100240.00;;;;2078666;28;20209;-52
2022/05/16 03:06:57;;;;;;;4.60;4.07;;;;;22.40;100238.00;;;;2079129;28;20278;-52
2022/05/16 03:07:58;;;;;;;4.40;4.00;;;;;22.40;100240.00;;;;2079216;28;20233;-52
2022/05/16 03:08:58;;;;;;;4.35;3.95;;;;;22.40;100233.00;;;;2079468;28;20221;-52
2022/05/16 03:09:59;;;;;;;4.30;3.90;;;;;22.40;100225.00;;;;2079211;28;20209;-51
2022/05/16 03:10:59;;;;;;;4.23;3.83;;;;;22.40;100240.00;;;;2079439;28;20341;-51
2022/05/16 03:12:00;;;;;;;6.23;4.20;;;;;22.40;100235.00;;;;2079227;28;20272;-52
2022/05/16 03:13:00;;;;;;;4.00;3.67;;;;;22.40;100232.00;;;;2077772;28;20221;-51
2022/05/16 03:14:01;;;;;;;4.40;3.90;;;;;22.40;100228.00;;;;2078269;28;20209;-52
2022/05/16 03:15:01;;;;;;;4.77;4.27;;;;;22.40;100234.00;;;;2078205;28;20448;-52
2022/05/16 03:16:02;;;;;;;4.63;4.13;;;;;22.40;100224.00;;;;2077273;28;20217;-52
2022/05/16 03:17:03;;;;;;;4.70;4.30;;;;;22.40;100235.00;;;;2077635;28;20224;-51
2022/05/16 03:18:03;;;;;;;4.10;3.70;;;;;22.40;100239.00;;;;2078161;28;20213;-52
2022/05/16 03:19:04;;;;;;;6.63;4.30;;;;;22.40;100234.00;;;;2078941;28;20716;-52
2022/05/16 03:20:06;;;;;;;4.60;4.20;;;;;22.50;100225.00;;;;2079485;28;20214;-52
2022/05/16 03:21:07;;;;;;;4.93;3.90;;;;;22.50;100231.00;;;;2079123;28;20648;-51
2022/05/16 03:22:07;;;;;;;4.70;4.17;;;;;22.50;100224.00;;;;2079314;28;20212;-52
2022/05/16 03:23:07;;;;;;;4.70;4.30;;;;;22.40;100238.00;;;;2079126;28;20225;-52
2022/05/16 03:24:08;;;;;;;3.97;3.60;;;;;22.40;100225.00;;;;2079033;28;20237;-51
2022/05/16 03:25:09;;;;;;;4.50;4.07;;;;;22.40;100230.00;;;;2078570;28;20775;-51
2022/05/16 03:26:09;;;;;;;4.53;4.23;;;;;22.40;100225.00;;;;2077770;28;20272;-51
2022/05/16 03:27:10;;;;;;;4.37;3.97;;;;;22.40;100232.00;;;;2078162;28;20589;-51
2022/05/16 03:28:11;;;;;;;4.10;3.70;;;;;22.40;100227.00;;;;2078518;28;20244;-51
2022/05/16 03:29:13;;;;;;;5.30;4.27;;;;;22.40;100230.00;;;;2078979;28;20217;-51
2022/05/16 03:30:13;;;;;;;4.20;3.85;;;;;22.40;100232.00;;;;2079108;28;20460;-51
2022/05/16 03:31:14;;;;;;;4.00;3.70;;;;;22.40;100228.00;;;;2078072;28;20660;-51
2022/05/16 03:32:14;;;;;;;4.10;3.80;;;;;22.40;100230.00;;;;2078846;28;20288;-51
2022/05/16 03:33:15;;;;;;;5.17;4.13;;;;;22.40;100232.00;;;;2079297;28;20218;-51
2022/05/16 03:34:15;;;;;;;4.00;3.70;;;;;22.40;100227.00;;;;2078885;28;20237;-52
2022/05/16 03:35:15;;;;;;;4.60;3.70;;;;;22.30;100232.00;;;;2077646;28;20275;-51
2022/05/16 03:36:16;;;;;;;4.20;3.90;;;;;22.40;100227.00;;;;2077611;28;20228;-51
2022/05/16 03:37:17;;;;;;;4.03;3.63;;;;;22.40;100238.00;;;;2079016;28;20589;-51
2022/05/16 03:40:55;;;;;;;4.70;4.20;;;;;22.40;100242.00;;;;2078814;28;20233;-51
2022/05/16 03:41:56;;;;;;;3.93;3.57;;;;;22.40;100241.00;;;;2079127;28;20673;-51
2022/05/16 03:42:57;;;;;;;5.68;3.78;;;;;22.40;100229.00;;;;2079120;28;20217;-52
2022/05/16 03:43:57;;;;;;;6.80;4.57;;;;;22.40;100234.00;;;;2078800;28;20237;-51
2022/05/16 03:44:58;;;;;;;4.07;3.73;;;;;22.40;100232.00;;;;2078934;28;20583;-51
2022/05/16 03:45:58;;;;;;;4.67;4.27;;;;;22.40;100230.00;;;;2077954;28;20677;-51
2022/05/16 03:46:58;;;;;;;4.00;3.60;;;;;22.40;100226.00;;;;2078812;28;20632;-51
2022/05/16 03:47:59;;;;;;;5.40;4.10;;;;;22.40;100226.00;;;;2078795;28;20678;-51
2022/05/16 03:48:59;;;;;;;4.90;3.87;;;;;22.40;100234.00;;;;2079297;28;20423;-51
2022/05/16 03:49:59;;;;;;;4.40;4.00;;;;;22.40;100232.00;;;;2078811;28;20239;-51
2022/05/16 03:51:00;;;;;;;4.43;4.03;;;;;22.40;100230.00;;;;2076720;28;20685;-51
2022/05/16 03:52:02;;;;;;;3.80;3.50;;;;;22.40;100229.00;;;;2077575;28;20623;-54
2022/05/16 03:53:02;;;;;;;4.85;4.35;;;;;22.40;100220.00;;;;2078148;28;20213;-51
2022/05/16 03:54:03;;;;;;;4.70;3.90;;;;;22.40;100229.00;;;;2078196;28;20214;-52
2022/05/16 03:55:05;;;;;;;5.00;4.35;;;;;22.40;100227.00;;;;2078054;28;20716;-52
2022/05/16 03:56:05;;;;;;;3.75;3.45;;;;;22.40;100228.00;;;;2076998;28;20585;-51
2022/05/16 03:57:06;;;;;;;5.37;4.03;;;;;22.40;100227.00;;;;2078261;28;20283;-51
2022/05/16 03:58:07;;;;;;;4.27;3.80;;;;;22.40;100222.00;;;;2078715;28;20241;-51
2022/05/16 03:59:07;;;;;;;4.23;3.50;;;;;22.40;100223.00;;;;2078803;28;20214;-51
2022/05/16 04:00:09;;;;;;;4.73;4.10;;;;;22.40;100226.00;;;;2078743;28;20217;-51
2022/05/16 04:01:11;;;;;;;4.20;3.90;;;;;22.40;100230.00;;;;2078931;28;20214;-52
2022/05/16 04:02:11;;;;;;;5.45;3.80;;;;;22.40;100222.00;;;;2075592;28;20237;-51
2022/05/16 04:03:11;;;;;;;4.03;3.63;;;;;22.40;100221.00;;;;2078195;28;20657;-51
2022/05/16 04:04:12;;;;;;;4.90;4.40;;;;;22.40;100225.00;;;;2078558;28;20221;-51
2022/05/16 04:05:15;;;;;;;7.40;4.03;;;;;22.40;100222.00;;;;2070203;28;20225;-51
2022/05/16 04:06:15;;;;;;;5.00;3.90;;;;;22.40;100224.00;;;;2077127;28;20940;-51
2022/05/16 04:07:15;;;;;;;6.20;4.67;;;;;22.40;100224.00;;;;2078041;28;20275;-52
2022/05/16 04:08:16;;;;;;;4.40;4.00;;;;;22.40;100238.00;;;;2078857;28;20351;-51
2022/05/16 04:09:16;;;;;;;4.80;4.00;;;;;22.40;100231.00;;;;2078919;28;20232;-51
2022/05/16 04:10:17;;;;;;;5.80;4.00;;;;;22.40;100232.00;;;;2078813;28;20209;-51
2022/05/16 04:11:17;;;;;;;4.47;4.03;;;;;22.30;100231.00;;;;2078668;28;20305;-51
2022/05/16 04:12:18;;;;;;;5.23;4.57;;;;;22.40;100227.00;;;;2078161;28;20773;-51
2022/05/16 04:13:18;;;;;;;6.90;4.53;;;;;22.30;100222.00;;;;2078047;28;20217;-51
2022/05/16 04:14:18;;;;;;;4.83;4.33;;;;;22.40;100223.00;;;;2078714;28;20233;-50
2022/05/16 04:15:21;;;;;;;5.47;4.40;;;;;22.40;100225.00;;;;2078235;28;20209;-51
2022/05/16 04:16:21;;;;;;;5.22;4.72;;;;;22.40;100223.00;;;;2077648;28;20213;-51
2022/05/16 04:17:21;;;;;;;7.63;5.30;;;;;22.40;100222.00;;;;2077939;28;20220;-51
2022/05/16 04:18:21;;;;;;;5.60;4.87;;;;;22.40;100220.00;;;;2078928;28;20209;-51
2022/05/16 04:19:22;;;;;;;5.30;4.33;;;;;22.40;100216.00;;;;2078561;28;20292;-51
2022/05/16 04:20:23;;;;;;;4.83;4.43;;;;;22.40;100223.00;;;;2078928;28;20213;-51
2022/05/16 04:21:23;;;;;;;5.23;4.73;;;;;22.40;100221.00;;;;2078733;28;20210;-52
2022/05/16 04:22:23;;;;;;;5.40;4.90;;;;;22.30;100226.00;;;;2078874;28;20440;-51
2022/05/16 04:23:24;;;;;;;5.43;4.50;;;;;22.40;100222.00;;;;2078822;28;20197;-52
2022/05/16 04:24:24;;;;;;;4.23;3.83;;;;;22.40;100234.00;;;;2078277;28;21042;-51
2022/05/16 04:25:25;;;;;;;5.50;4.50;;;;;22.40;100228.00;;;;2077928;28;20976;-51
2022/05/16 04:26:25;;;;;;;6.50;5.10;;;;;22.40;100218.00;;;;2078728;28;20701;-51
2022/05/16 04:27:25;;;;;;;5.50;5.00;;;;;22.30;100228.00;;;;2078585;28;22836;-51
2022/05/16 04:28:25;;;;;;;4.83;4.33;;;;;22.30;100222.00;;;;2078330;28;20218;-51
2022/05/16 04:29:26;;;;;;;4.43;4.03;;;;;22.40;100228.00;;;;2078565;28;21370;-51
2022/05/16 04:30:26;;;;;;;5.17;4.20;;;;;22.30;100226.00;;;;2078125;28;21209;-51
2022/05/16 04:31:27;;;;;;;4.27;3.87;;;;;22.30;100227.00;;;;2078111;28;20218;-52
2022/05/16 04:32:27;;;;;;;5.17;4.50;;;;;22.30;100231.00;;;;2077989;28;20287;-51
2022/05/16 04:33:27;;;;;;;4.83;4.43;;;;;22.30;100228.00;;;;2078700;28;20554;-51
2022/05/16 04:34:27;;;;;;;5.60;5.00;;;;;22.40;100225.00;;;;2078399;28;20602;-51
2022/05/16 04:35:28;;;;;;;5.30;4.40;;;;;22.40;100222.00;;;;2077578;28;20644;-51
2022/05/16 04:36:28;;;;;;;5.80;4.77;;;;;22.30;100216.00;;;;2078640;28;20275;-51
2022/05/16 04:37:32;;;;;;;5.80;4.60;;;;;22.30;100216.00;;;;2077724;28;20275;-51
2022/05/16 04:38:32;;;;;;;4.65;4.07;;;;;22.30;100222.00;;;;2076946;28;20915;-51
2022/05/16 04:39:33;;;;;;;5.50;4.60;;;;;22.40;100218.00;;;;2077019;28;20253;-51
2022/05/16 04:40:33;;;;;;;4.53;4.13;;;;;22.40;100218.00;;;;2077174;28;20318;-51
2022/05/16 04:42:53;;;;;;;5.57;4.65;;;;;22.40;100216.00;;;;2077584;28;20213;-52
2022/05/16 04:43:53;;;;;;;5.37;4.87;;;;;22.40;100224.00;;;;2077396;28;20217;-52
2022/05/16 04:44:53;;;;;;;5.23;4.60;;;;;22.40;100209.00;;;;2070826;28;20221;-52
2022/05/16 04:45:54;;;;;;;5.00;4.50;;;;;22.40;100214.00;;;;2068689;28;20207;-52
2022/05/16 04:46:54;;;;;;;5.57;4.97;;;;;22.40;100209.00;;;;2069709;28;20276;-52
2022/05/16 04:47:56;;;;;;;4.60;4.20;;;;;22.40;100222.00;;;;2069878;28;20210;-52
2022/05/16 04:48:57;;;;;;;4.43;4.03;;;;;22.40;100213.00;;;;2068363;28;20714;-52
2022/05/16 04:49:58;;;;;;;5.03;4.53;;;;;22.40;100210.00;;;;2070028;28;20225;-52
2022/05/16 04:50:59;;;;;;;4.53;4.13;;;;;22.40;100218.00;;;;2069662;28;20642;-52
2022/05/16 04:52:00;;;;;;;6.07;4.38;;;;;22.40;100217.00;;;;2069817;28;22532;-52
2022/05/16 04:53:00;;;;;;;5.37;4.87;;;;;22.40;100224.00;;;;2069744;28;20230;-52
2022/05/16 04:54:01;;;;;;;5.40;4.90;;;;;22.40;100216.00;;;;2071214;28;20224;-52
2022/05/16 04:55:01;;;;;;;4.90;4.50;;;;;22.40;100225.00;;;;2077116;28;20212;-52
2022/05/16 04:56:01;;;;;;;4.90;4.40;;;;;22.30;100219.00;;;;2077793;28;21014;-52
2022/05/16 04:57:02;;;;;;;5.13;4.30;;;;;22.30;100220.00;;;;2078283;28;20217;-52
2022/05/16 04:58:02;;;;;;;4.83;4.37;;;;;22.30;100219.00;;;;2078057;28;20220;-52
2022/05/16 04:59:03;;;;;;;4.67;4.17;;;;;22.30;100225.00;;;;2069271;28;20245;-51
2022/05/16 05:00:04;;;;;;;7.13;5.00;;;;;22.30;100226.00;;;;2069403;28;20368;-51
2022/05/16 05:01:05;;;;;;;5.28;4.20;;;;;22.30;100226.00;;;;2069585;28;20225;-51
2022/05/16 05:02:05;;;;;;;4.90;4.40;;;;;22.40;100226.00;;;;2069957;28;20213;-51
2022/05/16 05:03:05;;;;;;;4.80;4.30;;;;;22.30;100223.00;;;;2068597;28;20288;-51
2022/05/16 05:04:06;;;;;;;5.93;4.27;;;;;22.40;100234.00;;;;2061104;28;20265;-51
2022/05/16 05:05:07;;;;;;;4.80;4.20;;;;;22.40;100230.00;;;;2068655;28;20316;-51
2022/05/16 05:06:07;;;;;;;4.63;4.15;;;;;22.40;100222.00;;;;2069287;28;20221;-51
2022/05/16 05:07:08;;;;;;;4.67;4.17;;;;;22.40;100222.00;;;;2070326;28;20214;-51
2022/05/16 05:08:08;;;;;;;4.53;4.13;;;;;22.40;100225.00;;;;2076536;28;20303;-51
2022/05/16 05:09:09;;;;;;;5.40;4.23;;;;;22.40;100218.00;;;;2077624;28;20283;-51
2022/05/16 05:15:26;;;;;;;7.05;4.80;;;;;22.40;100215.00;;;;2077793;28;20205;-52
2022/05/16 05:16:27;;;;;;;5.90;4.63;;;;;22.40;100217.00;;;;2078559;28;20201;-51
2022/05/16 05:17:27;;;;;;;4.73;4.13;;;;;22.40;100226.00;;;;2078198;28;20206;-52
2022/05/16 05:18:27;;;;;;;5.73;4.00;;;;;22.40;100222.00;;;;2078488;28;20212;-52
2022/05/16 05:19:28;;;;;;;4.33;3.93;;;;;22.40;100222.00;;;;2078368;28;20202;-52
2022/05/16 05:20:28;;;;;;;4.63;4.33;;;;;22.40;100216.00;;;;2078118;28;20874;-53
2022/05/16 05:21:29;;;;;;;4.90;4.50;;;;;22.40;100223.00;;;;2078367;28;20205;-52